createdAt,value
2022-08-08T00:02:03.446Z,17.40
2022-08-08T00:05:17.254Z,18.30
2022-08-08T00:08:05.442Z,17.10
2022-08-08T00:11:16.699Z,17.00
2022-08-08T00:14:15.879Z,17.00
2022-08-08T00:17:04.811Z,16.80
2022-08-08T00:20:05.462Z,17.10
2022-08-08T00:22:42.552Z,16.90
2022-08-08T00:25:39.142Z,15.70
2022-08-08T00:28:35.769Z,16.90
2022-08-08T00:32:16.140Z,16.90
2022-08-08T00:35:16.650Z,16.70
2022-08-08T00:38:01.448Z,16.70
2022-08-08T00:41:11.652Z,16.80
2022-08-08T00:43:40.825Z,16.60
2022-08-08T00:46:16.115Z,16.90
2022-08-08T00:49:22.629Z,16.50
2022-08-08T00:52:20.096Z,18.70
2022-08-08T00:55:00.380Z,16.90
2022-08-08T00:58:13.539Z,16.90
2022-08-08T01:01:13.639Z,16.90
2022-08-08T01:04:33.739Z,16.60
2022-08-08T01:07:34.827Z,16.40
2022-08-08T01:10:53.696Z,16.30
2022-08-08T01:13:52.761Z,17.40
2022-08-08T01:16:34.587Z,16.30
2022-08-08T01:19:51.982Z,16.30
2022-08-08T01:22:39.929Z,16.20
2022-08-08T01:25:40.653Z,16.30
2022-08-08T01:28:38.463Z,16.20
2022-08-08T01:32:05.829Z,16.30
2022-08-08T01:34:44.287Z,16.20
2022-08-08T01:38:03.445Z,16.90
2022-08-08T01:40:49.765Z,16.10
2022-08-08T01:43:48.748Z,14.50
2022-08-08T01:46:52.452Z,16.10
2022-08-08T01:50:07.889Z,16.60
2022-08-08T01:54:12.239Z,16.00
2022-08-08T01:56:31.171Z,16.00
2022-08-08T01:59:21.694Z,16.00
2022-08-08T02:02:34.307Z,16.00
2022-08-08T02:05:20.376Z,16.00
2022-08-08T02:08:10.429Z,15.90
2022-08-08T02:10:45.927Z,16.30
2022-08-08T02:13:54.314Z,16.10
2022-08-08T02:16:38.027Z,15.90
2022-08-08T02:19:56.843Z,15.70
2022-08-08T02:22:52.894Z,15.80
2022-08-08T02:25:47.008Z,13.40
2022-08-08T02:28:59.290Z,14.80
2022-08-08T02:31:57.878Z,15.60
2022-08-08T02:35:08.299Z,15.60
2022-08-08T02:37:58.536Z,15.60
2022-08-08T02:40:53.941Z,15.60
2022-08-08T02:44:43.122Z,15.50
2022-08-08T02:46:57.673Z,15.40
2022-08-08T02:50:02.852Z,15.40
2022-08-08T02:53:11.742Z,15.40
2022-08-08T02:56:21.397Z,15.60
2022-08-08T02:59:58.227Z,15.30
2022-08-08T03:03:04.946Z,15.30
2022-08-08T03:06:00.097Z,15.30
2022-08-08T03:08:51.924Z,15.20
2022-08-08T03:12:01.576Z,15.30
2022-08-08T03:15:56.777Z,16.20
2022-08-08T03:17:59.851Z,15.20
2022-08-08T03:20:52.021Z,15.20
2022-08-08T03:23:30.548Z,15.20
2022-08-08T03:26:07.892Z,17.00
2022-08-08T03:28:43.645Z,15.20
2022-08-08T03:31:38.075Z,15.10
2022-08-08T03:34:19.957Z,15.10
2022-08-08T03:36:49.471Z,16.90
2022-08-08T03:39:17.032Z,15.10
2022-08-08T03:42:28.779Z,15.00
2022-08-08T03:44:39.797Z,15.20
2022-08-08T03:47:19.752Z,15.10
2022-08-08T03:49:59.753Z,15.20
2022-08-08T03:52:31.971Z,15.20
2022-08-08T03:55:09.966Z,15.00
2022-08-08T03:58:31.855Z,15.80
2022-08-08T04:00:36.104Z,15.00
2022-08-08T04:03:58.214Z,15.10
2022-08-08T04:06:23.460Z,15.00
2022-08-08T04:08:57.761Z,15.10
2022-08-08T04:11:26.166Z,15.10
2022-08-08T04:14:33.177Z,15.10
2022-08-08T04:16:43.694Z,15.00
2022-08-08T04:19:25.129Z,15.10
2022-08-08T04:21:58.301Z,16.10
2022-08-08T04:24:30.967Z,15.10
2022-08-08T04:27:02.073Z,15.10
2022-08-08T04:29:37.138Z,16.00
2022-08-08T04:32:10.419Z,15.20
2022-08-08T04:34:56.073Z,15.10
2022-08-08T04:37:45.332Z,15.50
2022-08-08T04:40:23.823Z,15.50
2022-08-08T04:42:56.792Z,15.10
2022-08-08T04:45:33.614Z,15.10
2022-08-08T04:48:02.815Z,15.20
2022-08-08T04:50:37.647Z,15.20
2022-08-08T04:53:14.121Z,16.40
2022-08-08T04:55:56.981Z,16.60
2022-08-08T04:58:28.469Z,15.20
2022-08-08T05:00:57.724Z,16.40
2022-08-08T05:04:11.316Z,15.30
2022-08-08T05:06:32.418Z,15.20
2022-08-08T05:09:02.154Z,15.30
2022-08-08T05:11:39.427Z,15.30
2022-08-08T05:14:12.778Z,15.60
2022-08-08T05:16:52.342Z,15.40
2022-08-08T05:20:10.732Z,15.70
2022-08-08T05:22:12.959Z,15.40
2022-08-08T05:24:48.249Z,15.50
2022-08-08T05:27:17.635Z,15.60
2022-08-08T05:29:51.980Z,15.50
2022-08-08T05:32:24.670Z,15.80
2022-08-08T05:35:04.656Z,15.70
2022-08-08T05:37:53.082Z,15.70
2022-08-08T05:40:45.349Z,15.80
2022-08-08T05:43:39.545Z,15.80
2022-08-08T05:46:24.509Z,15.90
2022-08-08T05:48:54.874Z,16.00
2022-08-08T05:51:27.300Z,16.90
2022-08-08T05:54:27.261Z,16.50
2022-08-08T05:57:15.145Z,16.20
2022-08-08T05:59:58.594Z,16.10
2022-08-08T06:03:03.710Z,16.50
2022-08-08T06:05:58.977Z,16.60
2022-08-08T06:08:34.916Z,16.80
2022-08-08T06:11:13.389Z,17.10
2022-08-08T06:13:47.470Z,17.20
2022-08-08T06:16:18.988Z,17.80
2022-08-08T06:19:09.705Z,17.70
2022-08-08T06:21:51.223Z,17.60
2022-08-08T06:24:36.251Z,17.80
2022-08-08T06:27:11.266Z,17.90
2022-08-08T06:30:02.218Z,18.10
2022-08-08T06:32:47.547Z,18.30
2022-08-08T06:36:53.236Z,18.40
2022-08-08T06:39:24.757Z,18.10
2022-08-08T06:41:59.724Z,18.50
2022-08-08T06:44:42.637Z,18.60
2022-08-08T06:47:10.980Z,18.90
2022-08-08T06:49:56.542Z,18.80
2022-08-08T06:52:27.713Z,18.80
2022-08-08T06:54:58.701Z,19.00
2022-08-08T06:57:29.064Z,19.10
2022-08-08T07:00:10.128Z,19.10
2022-08-08T07:02:46.155Z,19.20
2022-08-08T07:05:20.672Z,19.30
2022-08-08T07:07:55.329Z,19.40
2022-08-08T07:10:33.377Z,19.50
2022-08-08T07:13:06.344Z,19.60
2022-08-08T07:16:05.114Z,19.70
2022-08-08T07:18:49.177Z,19.80
2022-08-08T07:21:21.554Z,19.80
2022-08-08T07:24:10.123Z,19.80
2022-08-08T07:26:53.367Z,20.00
2022-08-08T07:30:02.234Z,20.10
2022-08-08T07:32:15.816Z,20.20
2022-08-08T07:35:00.362Z,20.30
2022-08-08T07:37:49.428Z,20.50
2022-08-08T07:40:29.721Z,20.50
2022-08-08T07:43:08.819Z,20.60
2022-08-08T07:46:05.757Z,20.70
2022-08-08T07:48:29.996Z,20.80
2022-08-08T07:51:00.988Z,20.90
2022-08-08T07:54:01.358Z,21.40
2022-08-08T07:56:35.503Z,21.20
2022-08-08T07:59:14.126Z,21.20
2022-08-08T08:02:34.494Z,21.10
2022-08-08T08:04:46.778Z,21.10
2022-08-08T08:07:19.310Z,21.30
2022-08-08T08:09:55.312Z,21.40
2022-08-08T08:12:35.576Z,21.60
2022-08-08T08:15:15.172Z,21.50
2022-08-08T08:17:48.225Z,21.50
2022-08-08T08:20:30.058Z,21.50
2022-08-08T08:23:01.144Z,21.70
2022-08-08T08:25:42.531Z,21.80
2022-08-08T08:28:21.040Z,21.90
2022-08-08T08:30:54.101Z,22.00
2022-08-08T08:33:24.756Z,22.10
2022-08-08T08:36:19.954Z,22.40
2022-08-08T08:38:49.371Z,22.60
2022-08-08T08:41:20.089Z,22.70
2022-08-08T08:43:51.175Z,22.60
2022-08-08T08:46:25.787Z,22.70
2022-08-08T08:48:56.076Z,22.80
2022-08-08T08:51:27.234Z,22.90
2022-08-08T08:54:02.220Z,22.80
2022-08-08T08:56:37.837Z,22.70
2022-08-08T08:59:19.660Z,22.70
2022-08-08T09:01:56.235Z,22.80
2022-08-08T09:04:43.390Z,22.80
2022-08-08T09:07:23.057Z,22.80
2022-08-08T09:09:55.030Z,22.80
2022-08-08T09:12:28.281Z,22.70
2022-08-08T09:14:58.991Z,22.90
2022-08-08T09:17:41.927Z,22.90
2022-08-08T09:21:57.641Z,23.10
2022-08-08T09:23:11.178Z,23.40
2022-08-08T09:26:00.614Z,23.60
2022-08-08T09:28:38.609Z,23.60
2022-08-08T09:31:20.436Z,23.40
2022-08-08T09:34:16.190Z,23.30
2022-08-08T09:36:51.907Z,23.30
2022-08-08T09:39:52.976Z,23.10
2022-08-08T09:42:26.082Z,23.00
2022-08-08T09:45:08.237Z,22.80
2022-08-08T09:48:09.796Z,22.80
2022-08-08T09:50:34.748Z,22.70
2022-08-08T09:53:23.358Z,22.70
2022-08-08T09:56:06.149Z,22.70
2022-08-08T09:58:41.371Z,22.60
2022-08-08T10:02:02.256Z,22.60
2022-08-08T10:04:14.327Z,22.50
2022-08-08T10:06:45.119Z,22.50
2022-08-08T10:09:13.363Z,22.50
2022-08-08T10:12:23.213Z,22.50
2022-08-08T10:14:39.392Z,22.50
2022-08-08T10:17:57.498Z,22.40
2022-08-08T10:20:00.121Z,22.40
2022-08-08T10:22:33.798Z,22.60
2022-08-08T10:25:07.356Z,22.90
2022-08-08T10:27:44.078Z,23.40
2022-08-08T10:30:16.732Z,23.80
2022-08-08T10:33:01.064Z,24.00
2022-08-08T10:36:07.441Z,24.30
2022-08-08T10:38:20.030Z,25.40
2022-08-08T10:40:52.142Z,24.40
2022-08-08T10:43:22.188Z,24.30
2022-08-08T10:45:56.644Z,24.20
2022-08-08T10:48:56.626Z,24.20
2022-08-08T10:51:47.447Z,24.20
2022-08-08T10:54:25.215Z,24.20
2022-08-08T10:57:03.775Z,24.10
2022-08-08T10:59:39.793Z,24.00
2022-08-08T11:02:10.675Z,23.90
2022-08-08T11:04:53.374Z,23.90
2022-08-08T11:08:31.011Z,24.00
2022-08-08T11:10:29.314Z,24.20
2022-08-08T11:15:58.754Z,24.50
2022-08-08T11:18:30.518Z,24.60
2022-08-08T11:21:09.950Z,24.70
2022-08-08T11:23:42.007Z,24.80
2022-08-08T11:26:18.761Z,24.90
2022-08-08T11:28:50.260Z,25.10
2022-08-08T11:31:20.722Z,25.30
2022-08-08T11:34:01.347Z,25.40
2022-08-08T11:36:33.262Z,25.50
2022-08-08T11:39:06.035Z,25.60
2022-08-08T11:41:45.072Z,23.80
2022-08-08T11:44:15.046Z,25.70
2022-08-08T11:46:43.269Z,25.80
2022-08-08T11:49:14.588Z,26.00
2022-08-08T11:51:49.782Z,25.90
2022-08-08T11:54:33.934Z,26.00
2022-08-08T11:57:14.557Z,26.20
2022-08-08T12:00:01.442Z,26.20
2022-08-08T12:03:14.791Z,26.10
2022-08-08T12:05:45.698Z,25.70
2022-08-08T12:08:17.951Z,25.60
2022-08-08T12:10:52.867Z,25.60
2022-08-08T12:13:37.715Z,25.50
2022-08-08T12:16:17.818Z,25.50
2022-08-08T12:18:56.051Z,25.50
2022-08-08T12:21:59.335Z,25.20
2022-08-08T12:24:28.206Z,24.90
2022-08-08T12:26:58.629Z,24.80
2022-08-08T12:29:40.555Z,24.90
2022-08-08T12:32:20.003Z,25.30
2022-08-08T12:35:01.460Z,25.60
2022-08-08T12:37:41.030Z,25.70
2022-08-08T12:40:22.693Z,25.70
2022-08-08T12:42:53.132Z,25.70
2022-08-08T12:45:58.328Z,25.70
2022-08-08T12:48:37.142Z,25.70
2022-08-08T12:51:10.802Z,26.00
2022-08-08T12:53:59.566Z,26.20
2022-08-08T12:56:35.879Z,23.90
2022-08-08T12:59:15.273Z,26.50
2022-08-08T13:01:54.864Z,26.50
2022-08-08T13:04:35.025Z,26.20
2022-08-08T13:07:05.391Z,26.30
2022-08-08T13:10:04.109Z,26.30
2022-08-08T13:12:34.849Z,26.40
2022-08-08T13:15:08.275Z,26.40
2022-08-08T13:18:09.113Z,26.30
2022-08-08T13:20:27.428Z,26.20
2022-08-08T13:23:29.909Z,26.10
2022-08-08T13:25:44.275Z,25.90
2022-08-08T13:28:28.658Z,25.80
2022-08-08T13:31:03.810Z,25.70
2022-08-08T13:33:42.556Z,25.60
2022-08-08T13:36:11.445Z,25.70
2022-08-08T13:38:39.759Z,26.00
2022-08-08T13:41:16.165Z,26.10
2022-08-08T13:43:47.498Z,25.30
2022-08-08T13:46:26.459Z,26.60
2022-08-08T13:49:11.698Z,26.70
2022-08-08T13:51:56.173Z,26.50
2022-08-08T13:54:29.488Z,26.40
2022-08-08T13:57:12.683Z,26.40
2022-08-08T13:59:48.620Z,26.30
2022-08-08T14:02:21.927Z,26.20
2022-08-08T14:05:22.375Z,26.00
2022-08-08T14:08:01.707Z,25.90
2022-08-08T14:10:39.448Z,25.90
2022-08-08T14:13:30.751Z,25.90
2022-08-08T14:16:04.861Z,26.20
2022-08-08T14:18:58.039Z,26.30
2022-08-08T14:21:40.757Z,26.30
2022-08-08T14:24:33.634Z,26.30
2022-08-08T14:27:01.855Z,26.20
2022-08-08T14:29:39.492Z,26.20
2022-08-08T14:32:11.523Z,26.00
2022-08-08T14:34:43.261Z,25.00
2022-08-08T14:37:13.291Z,25.80
2022-08-08T14:39:50.137Z,25.80
2022-08-08T14:42:56.615Z,25.70
2022-08-08T14:45:33.360Z,25.60
2022-08-08T14:48:27.409Z,25.50
2022-08-08T14:51:06.466Z,25.40
2022-08-08T14:53:54.686Z,25.30
2022-08-08T14:56:25.785Z,25.30
2022-08-08T14:58:56.611Z,25.20
2022-08-08T15:01:37.699Z,25.10
2022-08-08T15:04:10.700Z,25.10
2022-08-08T15:06:39.154Z,24.90
2022-08-08T15:09:10.167Z,24.90
2022-08-08T15:11:46.571Z,24.80
2022-08-08T15:14:25.250Z,24.90
2022-08-08T15:16:57.221Z,25.10
2022-08-08T15:19:28.119Z,25.70
2022-08-08T15:21:57.827Z,25.50
2022-08-08T15:24:31.687Z,25.60
2022-08-08T15:27:19.892Z,25.60
2022-08-08T15:29:48.264Z,25.50
2022-08-08T15:32:20.608Z,25.30
2022-08-08T15:34:59.837Z,25.10
2022-08-08T15:37:27.883Z,24.70
2022-08-08T15:39:55.425Z,25.00
2022-08-08T15:42:31.908Z,24.80
2022-08-08T15:45:01.724Z,24.80
2022-08-08T15:47:31.299Z,24.80
2022-08-08T15:49:59.915Z,24.80
2022-08-08T15:52:27.621Z,24.80
2022-08-08T15:54:55.120Z,24.90
2022-08-08T15:57:23.604Z,24.90
2022-08-08T16:00:25.540Z,25.10
2022-08-08T16:02:44.616Z,24.70
2022-08-08T16:05:21.004Z,24.60
2022-08-08T16:07:52.938Z,24.50
2022-08-08T16:13:15.122Z,24.60
2022-08-08T16:13:30.342Z,24.70
2022-08-08T16:16:13.355Z,25.00
2022-08-08T16:18:53.138Z,24.90
2022-08-08T16:21:27.765Z,24.90
2022-08-08T16:23:56.753Z,24.70
2022-08-08T16:26:34.391Z,24.50
2022-08-08T16:29:16.222Z,24.50
2022-08-08T16:31:48.987Z,24.50
2022-08-08T16:34:19.894Z,24.60
2022-08-08T16:36:50.585Z,24.60
2022-08-08T16:40:01.369Z,24.60
2022-08-08T16:42:15.679Z,23.40
2022-08-08T16:44:54.406Z,24.60
2022-08-08T16:47:40.006Z,24.60
2022-08-08T16:50:16.711Z,24.60
2022-08-08T16:55:18.392Z,24.50
2022-08-08T16:55:55.736Z,24.50
2022-08-08T16:58:29.363Z,24.40
2022-08-08T17:01:00.879Z,24.40
2022-08-08T17:03:58.548Z,24.30
2022-08-08T17:06:36.421Z,24.30
2022-08-08T17:09:04.242Z,24.30
2022-08-08T17:11:39.495Z,24.30
2022-08-08T17:14:19.023Z,24.30
2022-08-08T17:16:57.499Z,24.20
2022-08-08T17:19:30.168Z,24.20
2022-08-08T17:22:00.905Z,24.20
2022-08-08T17:24:30.548Z,24.10
2022-08-08T17:27:02.352Z,24.10
2022-08-08T17:29:33.427Z,24.00
2022-08-08T17:32:02.599Z,24.10
2022-08-08T17:34:54.039Z,24.00
2022-08-08T17:37:19.496Z,23.90
2022-08-08T17:40:10.629Z,23.80
2022-08-08T17:42:34.806Z,23.80
2022-08-08T17:45:02.857Z,23.70
2022-08-08T17:47:37.661Z,23.60
2022-08-08T17:50:09.655Z,23.50
2022-08-08T17:52:38.309Z,23.50
2022-08-08T17:56:04.201Z,23.40
2022-08-08T17:57:54.666Z,23.30
2022-08-08T18:00:30.198Z,23.20
2022-08-08T18:03:07.690Z,23.20
2022-08-08T18:05:44.304Z,23.20
2022-08-08T18:08:24.604Z,23.00
2022-08-08T18:11:17.248Z,23.00
2022-08-08T18:13:46.289Z,22.90
2022-08-08T18:16:17.221Z,22.90
2022-08-08T18:18:52.930Z,22.80
2022-08-08T18:21:35.513Z,21.90
2022-08-08T18:24:18.764Z,22.70
2022-08-08T18:26:54.985Z,22.60
2022-08-08T18:29:33.227Z,22.60
2022-08-08T18:32:07.650Z,22.50
2022-08-08T18:34:37.879Z,22.50
2022-08-08T18:37:08.297Z,22.40
2022-08-08T18:39:41.421Z,22.40
2022-08-08T18:42:14.374Z,22.30
2022-08-08T18:44:55.194Z,22.20
2022-08-08T18:47:26.311Z,22.20
2022-08-08T18:49:58.704Z,22.10
2022-08-08T18:52:36.783Z,22.10
2022-08-08T18:55:10.332Z,22.00
2022-08-08T18:57:44.964Z,21.90
2022-08-08T19:00:20.565Z,21.90
2022-08-08T19:02:57.114Z,21.90
2022-08-08T19:05:32.227Z,21.80
2022-08-08T19:08:32.585Z,21.70
2022-08-08T19:11:01.767Z,21.70
2022-08-08T19:13:53.338Z,21.60
2022-08-08T19:16:20.316Z,21.60
2022-08-08T19:18:57.378Z,21.50
2022-08-08T19:21:33.499Z,21.50
2022-08-08T19:24:38.667Z,21.40
2022-08-08T19:27:03.087Z,21.40
2022-08-08T19:29:31.523Z,21.30
2022-08-08T19:32:01.798Z,21.30
2022-08-08T19:34:36.123Z,21.20
2022-08-08T19:37:16.452Z,21.20
2022-08-08T19:39:45.548Z,21.10
2022-08-08T19:42:13.778Z,21.10
2022-08-08T19:44:42.759Z,21.00
2022-08-08T19:47:15.811Z,21.00
2022-08-08T19:50:00.161Z,21.00
2022-08-08T19:52:34.717Z,20.90
2022-08-08T19:55:12.773Z,20.90
2022-08-08T19:57:42.420Z,20.80
2022-08-08T20:00:30.197Z,20.80
2022-08-08T20:03:14.864Z,20.80
2022-08-08T20:06:13.761Z,20.70
2022-08-08T20:08:47.693Z,20.70
2022-08-08T20:11:16.375Z,20.60
2022-08-08T20:14:12.045Z,20.60
2022-08-08T20:16:32.112Z,20.60
2022-08-08T20:19:01.697Z,20.50
2022-08-08T20:21:32.085Z,20.50
2022-08-08T20:24:07.675Z,20.40
2022-08-08T20:26:38.453Z,20.40
2022-08-08T20:29:11.297Z,20.40
2022-08-08T20:32:02.810Z,20.30
2022-08-08T20:34:28.918Z,20.30
2022-08-08T20:36:58.885Z,20.30
2022-08-08T20:39:33.652Z,20.20
2022-08-08T20:42:01.455Z,20.20
2022-08-08T20:44:28.884Z,20.20
2022-08-08T20:46:58.111Z,20.10
2022-08-08T20:49:32.343Z,20.20
2022-08-08T20:52:07.423Z,20.10
2022-08-08T20:54:35.122Z,20.10
2022-08-08T20:57:05.922Z,20.10
2022-08-08T20:59:45.042Z,20.00
2022-08-08T21:02:19.711Z,20.00
2022-08-08T21:05:00.261Z,20.00
2022-08-08T21:07:47.999Z,19.90
2022-08-08T21:10:18.004Z,19.90
2022-08-08T21:12:54.526Z,19.90
2022-08-08T21:16:05.092Z,19.80
2022-08-08T21:18:11.675Z,19.80
2022-08-08T21:20:41.962Z,19.80
2022-08-08T21:23:15.882Z,19.70
2022-08-08T21:25:48.776Z,19.70
2022-08-08T21:28:33.310Z,19.70
2022-08-08T21:31:22.507Z,19.70
2022-08-08T21:33:53.005Z,19.60
2022-08-08T21:36:28.548Z,19.60
2022-08-08T21:38:57.788Z,19.60
2022-08-08T21:41:38.261Z,20.00
2022-08-08T21:44:11.175Z,19.50
2022-08-08T21:48:07.511Z,19.50
2022-08-08T21:49:29.786Z,19.50
2022-08-08T21:54:36.672Z,19.50
2022-08-08T21:55:02.259Z,19.40
2022-08-08T21:57:43.028Z,19.40
2022-08-08T22:00:26.111Z,19.40
2022-08-08T22:02:53.922Z,19.40
2022-08-08T22:05:22.553Z,19.30
2022-08-08T22:07:50.061Z,19.30
2022-08-08T22:10:32.227Z,19.60
2022-08-08T22:13:18.065Z,19.90
2022-08-08T22:15:59.642Z,19.80
2022-08-08T22:18:33.253Z,19.20
2022-08-08T22:21:14.602Z,19.20
2022-08-08T22:23:51.756Z,19.10
2022-08-08T22:26:28.826Z,19.20
2022-08-08T22:29:13.663Z,19.10
2022-08-08T22:31:58.245Z,19.10
2022-08-08T22:34:39.231Z,19.10
2022-08-08T22:37:27.786Z,19.00
2022-08-08T22:40:01.160Z,19.40
2022-08-08T22:42:31.755Z,18.90
2022-08-08T22:45:12.412Z,18.90
2022-08-08T22:47:49.445Z,18.90
2022-08-08T22:50:26.018Z,18.80
2022-08-08T22:54:30.277Z,18.80
2022-08-08T22:55:57.922Z,18.80
2022-08-08T22:58:32.830Z,18.70
2022-08-08T23:02:01.639Z,18.70
2022-08-08T23:03:56.317Z,18.70
2022-08-08T23:06:25.631Z,17.20
2022-08-08T23:08:58.092Z,18.70
2022-08-08T23:11:30.950Z,18.60
2022-08-08T23:14:20.597Z,18.60
2022-08-08T23:16:53.244Z,18.60
2022-08-08T23:19:32.211Z,18.60
2022-08-08T23:22:05.289Z,18.50
2022-08-08T23:24:36.470Z,18.50
2022-08-08T23:27:38.012Z,18.50
2022-08-08T23:30:02.632Z,18.50
2022-08-08T23:32:30.698Z,18.50
2022-08-08T23:41:05.254Z,18.40
2022-08-08T23:43:45.696Z,18.30
2022-08-08T23:49:05.809Z,18.30
2022-08-08T23:49:18.326Z,18.30
2022-08-08T23:52:06.629Z,18.20
2022-08-08T23:54:53.194Z,18.20
2022-08-08T23:57:39.403Z,18.10
